Time;durP1;ratioP1;P1;durP2;ratioP2;P2;SDS_P1;SDS_P2;PMS_P1;PMS_P2;Temp;Humidity;BMP_temperature;BMP_pressure;BME280_temperature;BME280_humidity;BME280_pressure;Samples;Min_cycle;Max_cycle;Signal;HPM_P1;HPM_P2
2022/04/02 00:00:22;;;;;;;22.05;12.93;;;;;;;;;;4938984;28;100566;-73
2022/04/02 00:02:49;;;;;;;22.25;12.82;;;;;;;;;;4955113;28;100116;-72
2022/04/02 00:05:16;;;;;;;23.65;14.68;;;;;;;;;;4972254;28;99995;-74
2022/04/02 00:07:44;;;;;;;25.23;14.60;;;;;;;;;;4954735;28;100290;-71
2022/04/02 00:10:11;;;;;;;21.40;13.88;;;;;;;;;;4972637;28;101166;-74
2022/04/02 00:12:39;;;;;;;23.27;15.35;;;;;;;;;;4972585;28;100375;-72
2022/04/02 00:15:06;;;;;;;24.35;13.50;;;;;;;;;;4969622;28;101050;-72
2022/04/02 00:17:33;;;;;;;20.50;13.20;;;;;;;;;;4971381;28;100705;-72
2022/04/02 00:20:00;;;;;;;24.27;14.77;;;;;;;;;;4972032;28;101084;-73
2022/04/02 00:22:27;;;;;;;21.92;13.63;;;;;;;;;;4955032;28;100069;-73
2022/04/02 00:24:53;;;;;;;24.30;13.63;;;;;;;;;;4966587;28;101848;-73
2022/04/02 00:27:20;;;;;;;21.95;14.15;;;;;;;;;;4971626;28;101562;-73
2022/04/02 00:29:47;;;;;;;23.85;13.48;;;;;;;;;;4970927;28;103374;-73
2022/04/02 00:32:14;;;;;;;21.13;12.20;;;;;;;;;;4966523;28;100059;-73
2022/04/02 00:34:41;;;;;;;20.70;12.65;;;;;;;;;;4955315;28;100062;-73
2022/04/02 00:37:08;;;;;;;20.60;12.05;;;;;;;;;;4954281;28;100394;-73
2022/04/02 00:39:35;;;;;;;21.80;12.85;;;;;;;;;;4953103;28;101686;-74
2022/04/02 00:42:02;;;;;;;24.70;13.80;;;;;;;;;;4954090;28;100014;-73
2022/04/02 00:44:28;;;;;;;19.42;11.85;;;;;;;;;;4921970;28;100139;-73
2022/04/02 00:46:55;;;;;;;24.83;13.73;;;;;;;;;;4970163;28;100284;-73
2022/04/02 00:49:22;;;;;;;23.63;14.15;;;;;;;;;;4969516;28;101377;-73
2022/04/02 00:51:49;;;;;;;19.30;12.80;;;;;;;;;;4965783;28;99930;-73
2022/04/02 00:54:18;;;;;;;24.00;13.63;;;;;;;;;;4938355;28;99975;-73
2022/04/02 00:56:45;;;;;;;22.45;12.77;;;;;;;;;;4938018;28;100323;-73
2022/04/02 00:59:12;;;;;;;27.17;14.10;;;;;;;;;;4971746;28;100646;-73
2022/04/02 01:01:40;;;;;;;23.52;13.10;;;;;;;;;;4938169;28;99992;-73
2022/04/02 01:04:09;;;;;;;23.70;13.30;;;;;;;;;;4954047;28;100015;-73
2022/04/02 01:06:41;;;;;;;22.13;14.13;;;;;;;;;;4937738;28;100379;-74
2022/04/02 01:09:13;;;;;;;22.50;13.15;;;;;;;;;;4955013;28;100733;-73
2022/04/02 01:11:42;;;;;;;21.83;13.23;;;;;;;;;;4938021;28;100000;-73
2022/04/02 01:14:10;;;;;;;26.30;12.60;;;;;;;;;;4954365;28;100126;-73
2022/04/02 01:16:40;;;;;;;22.52;13.80;;;;;;;;;;4953842;28;100317;-73
2022/04/02 01:19:14;;;;;;;24.80;14.20;;;;;;;;;;4953975;28;100646;-73
2022/04/02 01:21:45;;;;;;;23.80;13.90;;;;;;;;;;4952887;28;100102;-73
2022/04/02 01:24:23;;;;;;;18.90;11.98;;;;;;;;;;4969510;28;100256;-74
2022/04/02 01:26:54;;;;;;;24.45;14.27;;;;;;;;;;4968951;28;102104;-73
2022/04/02 01:29:24;;;;;;;22.92;13.43;;;;;;;;;;4936760;28;100726;-73
2022/04/02 01:31:56;;;;;;;21.45;13.32;;;;;;;;;;4935933;28;100218;-73
2022/04/02 01:34:25;;;;;;;22.85;14.07;;;;;;;;;;4952614;28;100043;-73
2022/04/02 01:36:56;;;;;;;20.65;13.38;;;;;;;;;;4952713;28;102554;-74
2022/04/02 01:39:27;;;;;;;19.45;11.65;;;;;;;;;;4952486;28;102126;-73
2022/04/02 01:41:54;;;;;;;22.63;13.73;;;;;;;;;;4935384;28;102160;-73
2022/04/02 01:44:28;;;;;;;20.55;12.52;;;;;;;;;;4952374;28;100209;-73
2022/04/02 01:46:55;;;;;;;21.00;12.68;;;;;;;;;;4985015;28;100493;-73
2022/04/02 01:49:24;;;;;;;20.70;12.75;;;;;;;;;;4952666;28;103016;-73
2022/04/02 01:51:51;;;;;;;19.02;12.27;;;;;;;;;;4952543;28;100233;-73
2022/04/02 01:54:20;;;;;;;21.13;11.85;;;;;;;;;;4952346;28;100091;-73
2022/04/02 01:56:57;;;;;;;21.58;13.32;;;;;;;;;;4938202;28;100341;-73
2022/04/02 01:59:24;;;;;;;20.73;12.57;;;;;;;;;;4969505;28;100636;-73
2022/04/02 02:01:52;;;;;;;22.08;13.70;;;;;;;;;;4953247;28;102864;-73
2022/04/02 02:04:18;;;;;;;22.02;12.60;;;;;;;;;;4953107;28;100081;-73
2022/04/02 02:06:46;;;;;;;21.15;12.18;;;;;;;;;;4969478;28;100476;-72
2022/04/02 02:09:16;;;;;;;19.17;11.57;;;;;;;;;;4969220;28;100560;-72
2022/04/02 02:12:15;;;;;;;23.08;12.65;;;;;;;;;;4946764;28;100151;-72
2022/04/02 02:14:53;;;;;;;17.70;11.50;;;;;;;;;;4938741;28;100112;-73
2022/04/02 02:17:20;;;;;;;19.55;11.60;;;;;;;;;;4936594;28;100475;-73
2022/04/02 02:19:56;;;;;;;20.92;12.98;;;;;;;;;;4954396;28;100726;-73
2022/04/02 02:22:23;;;;;;;20.40;12.70;;;;;;;;;;4952421;28;100106;-73
2022/04/02 02:24:50;;;;;;;20.58;12.90;;;;;;;;;;4970705;28;99972;-73
2022/04/02 02:27:17;;;;;;;21.70;14.15;;;;;;;;;;4952778;28;100393;-73
2022/04/02 02:29:44;;;;;;;23.63;12.88;;;;;;;;;;4936658;28;100600;-73
2022/04/02 02:32:18;;;;;;;18.70;11.68;;;;;;;;;;4953226;28;100215;-73
2022/04/02 02:37:31;;;;;;;22.40;13.32;;;;;;;;;;4952483;28;100364;-72
2022/04/02 02:40:09;;;;;;;23.25;13.95;;;;;;;;;;4969322;28;100586;-72
2022/04/02 02:42:36;;;;;;;22.15;13.73;;;;;;;;;;4968926;28;100222;-72
2022/04/02 02:45:17;;;;;;;24.05;13.65;;;;;;;;;;4924552;28;99923;-72
2022/04/02 02:47:45;;;;;;;23.00;12.45;;;;;;;;;;4968175;28;100298;-73
2022/04/02 02:50:15;;;;;;;24.52;13.48;;;;;;;;;;4920733;28;100589;-73
2022/04/02 02:52:52;;;;;;;22.50;12.80;;;;;;;;;;4923413;28;99926;-73
2022/04/02 02:55:20;;;;;;;21.98;13.52;;;;;;;;;;4936405;28;100482;-73
2022/04/02 02:57:47;;;;;;;24.35;14.07;;;;;;;;;;4936221;28;100400;-73
2022/04/02 03:00:15;;;;;;;22.13;13.68;;;;;;;;;;4916966;28;101315;-72
2022/04/02 03:02:43;;;;;;;21.13;13.00;;;;;;;;;;4934845;28;100007;-73
2022/04/02 03:05:14;;;;;;;19.95;11.88;;;;;;;;;;4943906;28;100192;-73
2022/04/02 03:07:48;;;;;;;24.95;13.45;;;;;;;;;;4965094;28;100277;-73
2022/04/02 03:10:22;;;;;;;24.23;13.95;;;;;;;;;;4919873;28;100723;-73
2022/04/02 03:12:51;;;;;;;19.85;11.95;;;;;;;;;;4964999;28;100008;-73
2022/04/02 03:15:19;;;;;;;20.75;12.45;;;;;;;;;;4965036;28;100039;-73
2022/04/02 03:17:47;;;;;;;19.75;12.85;;;;;;;;;;4932931;28;100350;-73
2022/04/02 03:20:17;;;;;;;20.35;13.20;;;;;;;;;;4932923;28;100674;-73
2022/04/02 03:22:45;;;;;;;22.15;13.25;;;;;;;;;;4948906;28;99953;-73
2022/04/02 03:25:13;;;;;;;21.30;12.50;;;;;;;;;;4965197;28;100156;-73
2022/04/02 03:27:40;;;;;;;32.72;14.27;;;;;;;;;;4932927;28;104795;-73
2022/04/02 03:30:09;;;;;;;23.42;14.75;;;;;;;;;;4948944;28;101220;-73
2022/04/02 03:32:36;;;;;;;21.73;13.98;;;;;;;;;;4943661;28;100124;-73
2022/04/02 03:35:05;;;;;;;22.60;14.38;;;;;;;;;;4932948;28;100004;-74
2022/04/02 03:37:38;;;;;;;23.02;14.20;;;;;;;;;;4932152;28;100559;-73
2022/04/02 03:40:07;;;;;;;22.83;13.05;;;;;;;;;;4964671;28;101201;-73
2022/04/02 03:42:38;;;;;;;22.65;13.80;;;;;;;;;;4945694;28;103141;-73
2022/04/02 03:45:09;;;;;;;21.52;14.20;;;;;;;;;;4933211;28;100073;-73
2022/04/02 03:47:36;;;;;;;23.20;13.60;;;;;;;;;;4948416;28;101396;-73
2022/04/02 03:50:03;;;;;;;20.73;12.98;;;;;;;;;;4964673;28;100581;-73
2022/04/02 03:52:39;;;;;;;19.42;11.95;;;;;;;;;;4965255;28;100418;-73
2022/04/02 03:55:12;;;;;;;21.02;13.23;;;;;;;;;;4918215;28;99933;-73
2022/04/02 03:57:39;;;;;;;21.20;12.93;;;;;;;;;;4948513;28;100442;-73
2022/04/02 04:00:09;;;;;;;17.38;11.73;;;;;;;;;;4916389;28;102122;-73
2022/04/02 04:02:42;;;;;;;19.98;11.98;;;;;;;;;;4947644;28;99905;-73
2022/04/02 04:05:14;;;;;;;24.58;14.02;;;;;;;;;;4932827;28;100073;-73
2022/04/02 04:07:43;;;;;;;23.05;12.85;;;;;;;;;;4947851;28;100359;-74
2022/04/02 04:10:11;;;;;;;23.48;12.75;;;;;;;;;;4916009;28;100659;-74
2022/04/02 04:12:47;;;;;;;24.75;15.10;;;;;;;;;;4948238;28;100557;-73
2022/04/02 04:15:14;;;;;;;24.75;14.35;;;;;;;;;;4949665;28;100304;-73
2022/04/02 04:17:42;;;;;;;26.10;13.38;;;;;;;;;;4951211;28;100267;-73
2022/04/02 04:20:11;;;;;;;20.67;11.77;;;;;;;;;;4935677;28;100587;-73
2022/04/02 04:22:39;;;;;;;21.67;12.65;;;;;;;;;;4967492;28;100165;-73
2022/04/02 04:25:10;;;;;;;23.48;13.50;;;;;;;;;;4935715;28;100119;-73
2022/04/02 04:27:39;;;;;;;23.65;12.77;;;;;;;;;;4934899;28;102136;-74
2022/04/02 04:30:08;;;;;;;20.17;12.20;;;;;;;;;;4967141;28;101098;-73
2022/04/02 04:32:35;;;;;;;22.92;13.13;;;;;;;;;;4951321;28;100220;-73
2022/04/02 04:35:03;;;;;;;23.90;13.75;;;;;;;;;;4952680;28;99993;-73
2022/04/02 04:37:33;;;;;;;21.60;12.90;;;;;;;;;;4950823;28;100331;-73
2022/04/02 04:40:00;;;;;;;22.10;12.05;;;;;;;;;;4950901;28;100734;-72
2022/04/02 04:42:28;;;;;;;23.80;13.68;;;;;;;;;;4951196;28;100327;-74
2022/04/02 04:44:56;;;;;;;21.08;13.20;;;;;;;;;;4951428;28;100131;-73
2022/04/02 04:47:24;;;;;;;25.13;14.23;;;;;;;;;;4950789;28;100575;-74
2022/04/02 04:49:52;;;;;;;23.42;13.68;;;;;;;;;;4950720;28;100802;-74
2022/04/02 04:52:19;;;;;;;27.25;15.07;;;;;;;;;;4934473;28;100193;-73
2022/04/02 04:54:46;;;;;;;27.77;13.73;;;;;;;;;;4935310;28;100200;-73
2022/04/02 04:57:18;;;;;;;25.73;13.43;;;;;;;;;;4966919;28;103137;-73
2022/04/02 04:59:55;;;;;;;22.08;13.63;;;;;;;;;;4950218;28;101182;-73
2022/04/02 05:02:23;;;;;;;22.55;12.68;;;;;;;;;;4966932;28;100077;-73
2022/04/02 05:04:51;;;;;;;25.35;14.57;;;;;;;;;;4966387;28;100260;-74
2022/04/02 05:07:19;;;;;;;25.40;13.48;;;;;;;;;;4966450;28;100333;-74
2022/04/02 05:09:49;;;;;;;21.70;11.93;;;;;;;;;;4951101;28;100995;-74
2022/04/02 05:12:17;;;;;;;24.38;13.05;;;;;;;;;;4935944;28;100536;-73
2022/04/02 05:14:46;;;;;;;23.92;13.38;;;;;;;;;;4949809;28;100211;-74
2022/04/02 05:17:17;;;;;;;22.38;13.57;;;;;;;;;;4950980;28;100350;-73
2022/04/02 05:19:45;;;;;;;22.42;13.13;;;;;;;;;;4934195;28;103642;-73
2022/04/02 05:22:13;;;;;;;27.13;15.00;;;;;;;;;;4950822;28;100446;-74
2022/04/02 05:24:47;;;;;;;22.58;12.93;;;;;;;;;;4950649;28;100537;-73
2022/04/02 05:27:15;;;;;;;22.52;12.38;;;;;;;;;;4965854;28;100489;-74
2022/04/02 05:29:43;;;;;;;26.35;14.07;;;;;;;;;;4950285;28;100582;-73
2022/04/02 05:32:10;;;;;;;24.27;14.43;;;;;;;;;;4951477;28;100144;-73
2022/04/02 05:34:39;;;;;;;25.48;13.70;;;;;;;;;;4951694;28;100098;-74
2022/04/02 05:37:06;;;;;;;25.23;14.10;;;;;;;;;;4949974;28;100239;-74
2022/04/02 05:39:33;;;;;;;25.60;15.23;;;;;;;;;;4933306;28;101170;-73
2022/04/02 05:42:00;;;;;;;26.40;13.90;;;;;;;;;;4934735;28;100401;-74
2022/04/02 05:44:28;;;;;;;23.30;14.45;;;;;;;;;;4951710;28;100066;-74
2022/04/02 05:46:55;;;;;;;26.25;15.13;;;;;;;;;;4967394;28;100428;-74
2022/04/02 05:49:40;;;;;;;22.38;12.63;;;;;;;;;;4949885;28;100606;-74
2022/04/02 05:52:07;;;;;;;26.63;15.27;;;;;;;;;;4951166;28;100127;-74
2022/04/02 05:54:37;;;;;;;26.35;14.05;;;;;;;;;;4951005;28;100100;-74
2022/04/02 05:57:04;;;;;;;24.67;13.40;;;;;;;;;;4950904;28;100815;-74
2022/04/02 05:59:32;;;;;;;24.25;13.23;;;;;;;;;;4950069;28;100685;-73
2022/04/02 06:01:59;;;;;;;22.80;12.65;;;;;;;;;;4933322;28;100271;-72
2022/04/02 06:04:28;;;;;;;27.10;14.90;;;;;;;;;;4932346;28;100040;-73
2022/04/02 06:06:55;;;;;;;23.70;13.98;;;;;;;;;;4940649;28;100324;-72
2022/04/02 06:09:22;;;;;;;24.17;12.85;;;;;;;;;;4969941;28;100640;-72
2022/04/02 06:11:48;;;;;;;24.98;13.70;;;;;;;;;;4953081;28;101389;-73
2022/04/02 06:14:15;;;;;;;30.95;16.17;;;;;;;;;;4938039;28;100176;-73
2022/04/02 06:16:44;;;;;;;26.55;14.98;;;;;;;;;;4953137;28;101563;-72
2022/04/02 06:19:10;;;;;;;27.33;14.38;;;;;;;;;;4969842;28;99974;-73
2022/04/02 06:21:37;;;;;;;22.92;13.10;;;;;;;;;;4952813;28;100107;-71
2022/04/02 06:24:06;;;;;;;24.60;13.30;;;;;;;;;;4953438;28;100177;-73
2022/04/02 06:26:33;;;;;;;24.23;13.02;;;;;;;;;;4969944;28;100276;-72
2022/04/02 06:28:59;;;;;;;26.02;13.43;;;;;;;;;;4952573;28;100799;-73
2022/04/02 06:31:26;;;;;;;19.60;11.40;;;;;;;;;;4952062;28;100129;-73
2022/04/02 06:33:53;;;;;;;24.55;13.25;;;;;;;;;;4936416;28;100149;-73
2022/04/02 06:36:21;;;;;;;22.90;13.10;;;;;;;;;;4952422;28;100570;-74
2022/04/02 06:38:49;;;;;;;25.98;14.23;;;;;;;;;;4967818;28;100799;-74
2022/04/02 06:41:15;;;;;;;22.48;12.45;;;;;;;;;;4970036;28;100065;-73
2022/04/02 06:43:42;;;;;;;21.65;11.73;;;;;;;;;;4969974;28;100084;-74
2022/04/02 06:46:15;;;;;;;20.20;11.50;;;;;;;;;;4969760;28;100465;-74
2022/04/02 06:48:42;;;;;;;22.75;12.48;;;;;;;;;;4970213;28;100788;-73
2022/04/02 06:51:09;;;;;;;21.40;12.05;;;;;;;;;;4969945;28;100138;-74
2022/04/02 06:53:36;;;;;;;21.00;11.75;;;;;;;;;;4952420;28;100151;-72
2022/04/02 06:56:03;;;;;;;23.10;12.38;;;;;;;;;;4969111;28;100313;-72
2022/04/02 06:58:34;;;;;;;20.10;11.93;;;;;;;;;;4969529;28;101714;-72
2022/04/02 07:01:01;;;;;;;23.13;12.95;;;;;;;;;;4969992;28;100085;-73
2022/04/02 07:03:28;;;;;;;18.75;11.38;;;;;;;;;;4969819;28;100109;-75
2022/04/02 07:05:55;;;;;;;16.83;10.93;;;;;;;;;;4951976;28;100253;-73
2022/04/02 07:08:22;;;;;;;19.42;10.90;;;;;;;;;;4968006;28;100820;-73
2022/04/02 07:10:49;;;;;;;16.17;9.38;;;;;;;;;;4951920;28;100241;-73
2022/04/02 07:13:15;;;;;;;19.23;10.43;;;;;;;;;;4952591;28;100083;-72
2022/04/02 07:15:43;;;;;;;21.08;11.35;;;;;;;;;;4968688;28;100248;-73
2022/04/02 07:18:10;;;;;;;18.17;10.93;;;;;;;;;;4950283;28;102175;-73
2022/04/02 07:20:38;;;;;;;19.58;12.02;;;;;;;;;;4950609;28;100217;-74
2022/04/02 07:23:09;;;;;;;20.20;10.93;;;;;;;;;;4969199;28;100124;-74
2022/04/02 07:25:39;;;;;;;17.55;10.02;;;;;;;;;;4968801;28;101718;-74
2022/04/02 07:28:09;;;;;;;18.10;10.55;;;;;;;;;;4951630;28;101869;-74
2022/04/02 07:30:37;;;;;;;20.52;11.68;;;;;;;;;;4936145;28;100127;-73
2022/04/02 07:33:05;;;;;;;15.32;9.90;;;;;;;;;;4951245;28;100482;-74
2022/04/02 07:35:41;;;;;;;19.33;10.73;;;;;;;;;;4952207;28;100431;-74
2022/04/02 07:38:17;;;;;;;20.23;11.27;;;;;;;;;;4934275;28;101187;-74
2022/04/02 07:41:11;;;;;;;17.65;10.68;;;;;;;;;;4951573;28;100187;-74
2022/04/02 07:43:52;;;;;;;18.75;10.70;;;;;;;;;;4952175;28;100225;-74
2022/04/02 07:46:23;;;;;;;14.90;8.75;;;;;;;;;;4933587;28;103223;-74
2022/04/02 07:48:50;;;;;;;17.20;10.55;;;;;;;;;;4953497;28;101350;-74
2022/04/02 07:51:29;;;;;;;20.80;10.18;;;;;;;;;;4941497;28;100173;-74
2022/04/02 07:54:00;;;;;;;17.98;10.20;;;;;;;;;;4959612;28;100131;-73
2022/04/02 07:56:27;;;;;;;17.20;9.82;;;;;;;;;;4972211;28;100355;-74
2022/04/02 07:59:02;;;;;;;20.83;12.10;;;;;;;;;;4972545;28;100591;-74
2022/04/02 08:01:29;;;;;;;20.33;10.70;;;;;;;;;;4958295;28;101312;-74
2022/04/02 08:03:59;;;;;;;19.02;10.05;;;;;;;;;;4982533;28;100214;-75
2022/04/02 08:06:27;;;;;;;18.58;11.23;;;;;;;;;;4971021;28;100972;-74
2022/04/02 08:08:53;;;;;;;22.73;11.68;;;;;;;;;;4955116;28;100549;-73
2022/04/02 08:11:20;;;;;;;24.60;10.85;;;;;;;;;;4954585;28;100106;-73
2022/04/02 08:13:49;;;;;;;20.52;12.30;;;;;;;;;;4942766;28;100109;-73
2022/04/02 08:16:16;;;;;;;18.25;10.88;;;;;;;;;;4938346;28;100447;-76
2022/04/02 08:18:44;;;;;;;20.10;12.70;;;;;;;;;;4955572;28;100725;-73
2022/04/02 08:21:19;;;;;;;21.35;11.75;;;;;;;;;;4922920;28;101400;-74
2022/04/02 08:23:46;;;;;;;22.83;12.80;;;;;;;;;;4941817;28;100121;-74
2022/04/02 08:26:23;;;;;;;18.70;11.25;;;;;;;;;;4969386;28;100579;-74
2022/04/02 08:29:13;;;;;;;18.30;10.05;;;;;;;;;;4972290;28;100596;-74
2022/04/02 08:31:56;;;;;;;19.33;10.55;;;;;;;;;;4957178;28;101506;-74
2022/04/02 08:34:51;;;;;;;23.65;12.57;;;;;;;;;;4971996;28;100114;-74
2022/04/02 08:37:37;;;;;;;21.48;12.38;;;;;;;;;;4937556;28;101900;-74
2022/04/02 08:40:24;;;;;;;20.65;11.73;;;;;;;;;;4955630;28;100547;-73
2022/04/02 08:43:22;;;;;;;21.75;12.45;;;;;;;;;;4954273;28;100141;-74
2022/04/02 08:46:03;;;;;;;21.02;12.95;;;;;;;;;;4957228;28;100093;-73
2022/04/02 08:48:34;;;;;;;21.95;12.43;;;;;;;;;;4954187;28;100590;-74
2022/04/02 08:51:17;;;;;;;23.05;12.57;;;;;;;;;;4937561;28;103255;-74
2022/04/02 08:53:51;;;;;;;20.33;12.95;;;;;;;;;;4938238;28;100150;-74
2022/04/02 08:56:22;;;;;;;;;;;;;;;;;;4951708;28;100081;-74
2022/04/02 08:58:56;;;;;;;23.13;12.25;;;;;;;;;;4971529;28;100280;-74
2022/04/02 09:01:25;;;;;;;21.35;12.35;;;;;;;;;;4970564;28;100642;-73
2022/04/02 09:04:27;;;;;;;20.20;12.63;;;;;;;;;;4971007;28;100082;-73
2022/04/02 09:07:15;;;;;;;21.10;11.32;;;;;;;;;;4969686;28;102171;-73
2022/04/02 09:10:04;;;;;;;23.60;13.60;;;;;;;;;;4955100;28;100338;-75
2022/04/02 09:12:55;;;;;;;20.77;11.93;;;;;;;;;;4970896;28;100961;-74
2022/04/02 09:15:33;;;;;;;24.05;13.55;;;;;;;;;;4971528;28;100099;-73
2022/04/02 09:18:21;;;;;;;22.63;13.27;;;;;;;;;;4970820;28;99974;-73
2022/04/02 09:20:57;;;;;;;24.70;13.63;;;;;;;;;;4940154;28;100533;-73
2022/04/02 09:23:44;;;;;;;20.02;12.23;;;;;;;;;;4954020;28;100762;-74
2022/04/02 09:26:42;;;;;;;19.92;11.65;;;;;;;;;;4944871;28;100197;-73
2022/04/02 09:29:16;;;;;;;20.55;10.82;;;;;;;;;;4953485;28;100218;-74
2022/04/02 09:31:53;;;;;;;;;;;;;;;;;;4937420;28;100786;-74
2022/04/02 09:34:50;;;;;;;19.60;10.27;;;;;;;;;;4953451;28;100642;-74
2022/04/02 09:37:32;;;;;;;18.90;11.27;;;;;;;;;;4954507;28;100110;-74
2022/04/02 09:39:59;;;;;;;18.30;10.50;;;;;;;;;;4970484;28;99967;-73
2022/04/02 09:42:30;;;;;;;20.02;10.85;;;;;;;;;;4970632;28;100396;-73
2022/04/02 09:45:04;;;;;;;17.77;10.40;;;;;;;;;;4965938;28;102876;-73
2022/04/02 09:47:56;;;;;;;19.02;10.85;;;;;;;;;;4953275;28;100284;-73
2022/04/02 09:50:24;;;;;;;23.10;12.60;;;;;;;;;;4970376;28;99879;-74
2022/04/02 09:52:58;;;;;;;22.77;11.88;;;;;;;;;;4953332;28;101291;-74
2022/04/02 09:55:29;;;;;;;18.02;11.15;;;;;;;;;;4953222;28;100228;-74
2022/04/02 09:58:18;;;;;;;21.70;11.25;;;;;;;;;;4952746;28;100130;-74
2022/04/02 10:01:03;;;;;;;21.58;11.93;;;;;;;;;;4970745;28;99990;-74
2022/04/02 10:03:52;;;;;;;19.25;10.68;;;;;;;;;;4952463;28;100737;-73
2022/04/02 10:06:28;;;;;;;21.27;11.55;;;;;;;;;;4952448;28;100901;-73
2022/04/02 10:09:04;;;;;;;21.67;12.65;;;;;;;;;;4937365;28;100111;-74
2022/04/02 10:11:32;;;;;;;22.52;12.48;;;;;;;;;;4970537;28;99876;-72
2022/04/02 10:13:59;;;;;;;23.55;13.73;;;;;;;;;;4967621;28;100825;-72
2022/04/02 10:16:27;;;;;;;21.58;14.02;;;;;;;;;;4950272;28;103334;-72
2022/04/02 10:18:56;;;;;;;21.20;12.55;;;;;;;;;;4970290;28;100039;-73
2022/04/02 10:21:24;;;;;;;20.33;13.05;;;;;;;;;;4967434;28;100118;-73
2022/04/02 10:24:04;;;;;;;23.55;13.88;;;;;;;;;;4952465;28;100341;-72
2022/04/02 10:26:41;;;;;;;18.92;12.25;;;;;;;;;;4953823;28;100754;-73
2022/04/02 10:29:12;;;;;;;22.77;13.60;;;;;;;;;;4969912;28;100073;-73
2022/04/02 10:31:50;;;;;;;19.83;12.45;;;;;;;;;;4969987;28;99942;-73
2022/04/02 10:34:27;;;;;;;18.92;11.48;;;;;;;;;;4936645;28;100219;-72
2022/04/02 10:37:15;;;;;;;22.00;13.07;;;;;;;;;;4952491;28;100638;-73
2022/04/02 10:39:58;;;;;;;21.75;12.90;;;;;;;;;;4951132;28;100111;-73
2022/04/02 10:42:31;;;;;;;21.98;13.35;;;;;;;;;;4934919;28;100078;-73
2022/04/02 10:44:59;;;;;;;24.80;14.32;;;;;;;;;;4936374;28;100794;-72
2022/04/02 10:47:27;;;;;;;19.48;12.77;;;;;;;;;;4952440;28;100704;-73
2022/04/02 10:50:02;;;;;;;23.45;14.10;;;;;;;;;;4969426;28;100106;-74
2022/04/02 10:52:30;;;;;;;18.98;11.95;;;;;;;;;;4952239;28;103092;-73
2022/04/02 10:54:57;;;;;;;23.40;14.45;;;;;;;;;;4969401;28;100425;-73
2022/04/02 10:57:29;;;;;;;18.05;10.95;;;;;;;;;;4952431;28;100580;-74
2022/04/02 11:00:03;;;;;;;16.60;10.88;;;;;;;;;;4937238;28;100070;-73
2022/04/02 11:02:40;;;;;;;;;;;;;;;;;;4970401;28;100270;-74
2022/04/02 11:05:10;;;;;;;18.88;10.38;;;;;;;;;;4969742;28;100419;-73
2022/04/02 11:07:43;;;;;;;19.80;10.75;;;;;;;;;;4969194;28;100818;-73
2022/04/02 11:10:18;;;;;;;18.75;10.40;;;;;;;;;;4969668;28;100161;-73
2022/04/02 11:12:46;;;;;;;18.88;10.07;;;;;;;;;;4936669;28;100827;-73
2022/04/02 11:15:23;;;;;;;17.50;9.80;;;;;;;;;;4951490;28;101012;-73
2022/04/02 11:17:50;;;;;;;14.20;9.18;;;;;;;;;;4935870;28;101738;-74
2022/04/02 11:20:27;;;;;;;17.70;10.88;;;;;;;;;;4951782;28;100342;-74
2022/04/02 11:23:02;;;;;;;19.60;11.63;;;;;;;;;;4965835;28;101821;-73
2022/04/02 11:25:35;;;;;;;17.25;11.50;;;;;;;;;;4972970;28;100667;-73
2022/04/02 11:28:05;;;;;;;23.13;13.93;;;;;;;;;;4976006;28;100571;-74
2022/04/02 11:30:33;;;;;;;25.42;14.05;;;;;;;;;;4976297;28;100175;-74
2022/04/02 11:33:13;;;;;;;18.80;10.95;;;;;;;;;;4942450;28;100141;-74
2022/04/02 11:35:45;;;;;;;17.33;11.30;;;;;;;;;;4976052;28;100354;-74
2022/04/02 11:38:25;;;;;;;18.40;12.18;;;;;;;;;;4975968;28;100542;-74
2022/04/02 11:41:15;;;;;;;18.52;11.25;;;;;;;;;;4958670;28;100165;-73
2022/04/02 11:43:44;;;;;;;16.83;10.60;;;;;;;;;;4962914;28;100289;-73
2022/04/02 11:46:15;;;;;;;18.42;11.25;;;;;;;;;;4957948;28;100452;-74
2022/04/02 11:48:53;;;;;;;21.23;12.68;;;;;;;;;;4975885;28;100750;-74
2022/04/02 11:51:31;;;;;;;20.33;11.90;;;;;;;;;;4958604;28;100208;-74
2022/04/02 11:54:03;;;;;;;20.20;12.65;;;;;;;;;;4975031;28;100344;-73
2022/04/02 11:56:32;;;;;;;19.00;10.65;;;;;;;;;;4974435;28;100412;-73
2022/04/02 11:59:01;;;;;;;16.58;9.77;;;;;;;;;;4974989;28;100755;-73
2022/04/02 12:01:41;;;;;;;18.98;11.05;;;;;;;;;;4942218;28;100092;-73
2022/04/02 12:04:14;;;;;;;18.83;11.65;;;;;;;;;;4975969;28;100112;-74
2022/04/02 12:06:46;;;;;;;14.77;8.95;;;;;;;;;;4957842;28;100302;-74
2022/04/02 12:09:23;;;;;;;20.85;12.07;;;;;;;;;;4958271;28;100587;-74
2022/04/02 12:11:52;;;;;;;17.00;10.73;;;;;;;;;;4958191;28;100232;-73
2022/04/02 12:14:32;;;;;;;20.20;11.32;;;;;;;;;;4958567;28;100122;-72
2022/04/02 12:17:14;;;;;;;19.27;11.88;;;;;;;;;;4975538;28;100243;-72
2022/04/02 12:19:53;;;;;;;18.17;11.00;;;;;;;;;;4975459;28;100631;-72
2022/04/02 12:22:28;;;;;;;20.67;13.60;;;;;;;;;;4957563;28;100124;-73
2022/04/02 12:24:58;;;;;;;25.02;15.32;;;;;;;;;;4958832;28;100194;-72
2022/04/02 12:27:27;;;;;;;25.90;15.40;;;;;;;;;;4975371;28;100515;-73
2022/04/02 12:29:55;;;;;;;22.95;14.32;;;;;;;;;;4975309;28;100607;-73
2022/04/02 12:32:35;;;;;;;19.30;12.15;;;;;;;;;;4956462;28;100276;-73
2022/04/02 12:35:10;;;;;;;22.45;11.48;;;;;;;;;;4957814;28;100165;-73
2022/04/02 12:37:56;;;;;;;22.50;14.25;;;;;;;;;;4954678;28;100386;-72
2022/04/02 12:40:28;;;;;;;23.25;12.00;;;;;;;;;;4971718;28;100584;-72
2022/04/02 12:43:00;;;;;;;18.52;12.23;;;;;;;;;;4972716;28;100159;-73
2022/04/02 12:45:29;;;;;;;26.13;14.80;;;;;;;;;;4955203;28;100083;-73
2022/04/02 12:48:07;;;;;;;24.83;13.18;;;;;;;;;;4921253;28;103252;-73
2022/04/02 12:50:38;;;;;;;21.65;13.38;;;;;;;;;;4937410;28;101907;-73
2022/04/02 12:53:05;;;;;;;21.73;12.90;;;;;;;;;;4971031;28;100084;-74
2022/04/02 12:55:33;;;;;;;22.33;13.80;;;;;;;;;;4937511;28;100154;-74
2022/04/02 12:58:07;;;;;;;23.90;13.82;;;;;;;;;;4953171;28;100242;-74
2022/04/02 13:00:42;;;;;;;23.80;14.75;;;;;;;;;;4970764;28;100700;-72
2022/04/02 13:03:34;;;;;;;28.05;15.48;;;;;;;;;;4953224;28;101325;-72
2022/04/02 13:06:04;;;;;;;29.38;18.52;;;;;;;;;;4953139;28;100207;-73
2022/04/02 13:08:30;;;;;;;28.60;16.52;;;;;;;;;;4937225;28;100435;-72
2022/04/02 13:11:00;;;;;;;25.40;14.75;;;;;;;;;;4936982;28;101466;-72
2022/04/02 13:13:43;;;;;;;20.67;13.57;;;;;;;;;;4937262;28;100249;-74
2022/04/02 13:16:10;;;;;;;24.63;14.23;;;;;;;;;;4950298;28;101212;-73
2022/04/02 13:21:32;;;;;;;23.85;13.38;;;;;;;;;;4956914;28;100705;-72
2022/04/02 13:24:28;;;;;;;20.73;13.23;;;;;;;;;;4954123;28;100044;-73
2022/04/02 13:27:08;;;;;;;23.35;14.25;;;;;;;;;;4954408;28;100166;-73
2022/04/02 13:30:04;;;;;;;24.95;15.27;;;;;;;;;;4971359;28;100360;-72
2022/04/02 13:32:49;;;;;;;26.35;16.02;;;;;;;;;;4970814;28;100631;-72
2022/04/02 13:35:39;;;;;;;28.80;16.30;;;;;;;;;;4970323;28;99918;-73
2022/04/02 13:38:18;;;;;;;38.67;20.00;;;;;;;;;;4954043;28;100247;-73
2022/04/02 13:40:46;;;;;;;25.88;16.00;;;;;;;;;;4971168;28;100334;-73
2022/04/02 13:43:22;;;;;;;27.42;16.13;;;;;;;;;;4937030;28;100743;-73
2022/04/02 13:45:49;;;;;;;27.45;15.77;;;;;;;;;;4938596;28;100090;-75
2022/04/02 13:48:17;;;;;;;34.13;18.75;;;;;;;;;;4953723;28;99967;-74
2022/04/02 13:51:02;;;;;;;32.78;17.40;;;;;;;;;;4937025;28;100381;-74
2022/04/02 13:53:35;;;;;;;23.92;14.10;;;;;;;;;;4938989;28;100729;-73
2022/04/02 13:56:12;;;;;;;25.83;15.13;;;;;;;;;;4971271;28;100166;-73
2022/04/02 13:58:41;;;;;;;24.02;14.85;;;;;;;;;;4971237;28;100138;-73
2022/04/02 14:01:14;;;;;;;23.13;12.77;;;;;;;;;;4953204;28;101496;-73
2022/04/02 14:03:44;;;;;;;24.30;14.82;;;;;;;;;;4953557;28;100704;-73
2022/04/02 14:06:13;;;;;;;25.08;13.23;;;;;;;;;;4953371;28;100196;-73
2022/04/02 14:08:40;;;;;;;22.50;13.38;;;;;;;;;;4938167;28;100176;-73
2022/04/02 14:11:16;;;;;;;26.75;14.85;;;;;;;;;;4937277;28;100868;-73
2022/04/02 14:14:05;;;;;;;22.15;13.32;;;;;;;;;;4953423;28;101232;-73
2022/04/02 14:16:36;;;;;;;21.48;12.10;;;;;;;;;;4938186;28;100161;-73
2022/04/02 14:19:10;;;;;;;23.02;13.77;;;;;;;;;;4921405;28;100232;-73
2022/04/02 14:21:37;;;;;;;22.23;13.23;;;;;;;;;;4969485;28;100639;-73
2022/04/02 14:24:11;;;;;;;25.08;13.77;;;;;;;;;;4970447;28;100626;-73
2022/04/02 14:26:56;;;;;;;22.95;14.05;;;;;;;;;;4953583;28;101709;-73
2022/04/02 14:29:39;;;;;;;20.77;13.95;;;;;;;;;;4953139;28;100353;-73
2022/04/02 14:32:15;;;;;;;22.88;14.20;;;;;;;;;;4970388;28;100307;-73
2022/04/02 14:35:04;;;;;;;23.90;14.63;;;;;;;;;;4970169;28;100638;-73
2022/04/02 14:37:56;;;;;;;21.58;13.52;;;;;;;;;;4955597;28;100062;-73
2022/04/02 14:40:38;;;;;;;24.67;13.27;;;;;;;;;;4955439;28;100005;-73